CT2IRK-11 SANTAREM PT current weather conditions

sailwx.info

Wind from 161 at 5 knots gusting 9

Air temperature 36.7° C
Dewpoint 19.6° C

Last reported at 2018-Aug-20 16:03 UTC.
Time now 2018-Aug-20 16:19 UTC

Location: N 39°22' W 008°29'.
View on Google Maps.

See reports from other nearby stations

  
Tides and Currents Weather Stations Pressure Air Temp Water Temp Dewpoint Dewpoint Depression Visibility Wind Speed Wind Dir Waves Ship Positions
date/time (UTC)wind fromknots sea level pressurealtimeterstation pressurevisibilityair tempwater tempwave heightnotes
2018-Aug-20 16:03 161 5 gusting 9 36.7
2018-Aug-20 15:58 212 5 gusting 9 36.7
2018-Aug-20 15:53 204 5 gusting 9 36.7
2018-Aug-20 15:48 249 4 gusting 9 36.7
2018-Aug-20 15:43 199 5 gusting 9 36.7
2018-Aug-20 15:38 148 6 gusting 9 36.7
2018-Aug-20 15:33 211 4 gusting 9 36.7
2018-Aug-20 15:28 145 4 gusting 9 36.7
2018-Aug-20 15:23 204 5 gusting 9 36.7
2018-Aug-20 15:18 215 4 gusting 9 36.7
2018-Aug-20 15:13 157 6 gusting 9 36.7
2018-Aug-20 15:08 216 6 gusting 9 36.1
2018-Aug-20 15:03 212 5 gusting 9 36.1
2018-Aug-20 14:58 225 6 gusting 9 36.7
2018-Aug-20 14:53 226 6 gusting 9 37.2
2018-Aug-20 14:48 202 4 gusting 9 36.7
2018-Aug-20 14:43 244 6 gusting 9 36.7
2018-Aug-20 14:38 200 4 gusting 9 36.7
2018-Aug-20 14:33 248 4 gusting 9 36.7
2018-Aug-20 14:28 225 6 gusting 9 36.7
2018-Aug-20 14:23 214 5 gusting 9 37.2
2018-Aug-20 14:18 222 4 gusting 9 36.7
2018-Aug-20 14:13 138 2 gusting 9 36.1
2018-Aug-20 14:08 242 6 gusting 9 36.7
2018-Aug-20 14:03 248 6 gusting 9 36.7
2018-Aug-20 13:58 238 5 gusting 9 36.7
2018-Aug-20 13:53 257 6 gusting 9 36.1
2018-Aug-20 13:48 226 7 gusting 9 36.1
2018-Aug-20 13:43 248 5 gusting 9 36.1
2018-Aug-20 13:38 261 7 gusting 9 36.7
2018-Aug-20 13:33 248 7 gusting 9 36.7
2018-Aug-20 13:28 242 6 gusting 9 36.1
2018-Aug-20 13:23 226 6 gusting 9 35.6
2018-Aug-20 13:18 275 6 gusting 8 36.1
2018-Aug-20 13:13 270 6 gusting 8 36.1
2018-Aug-20 13:08 243 6 gusting 8 35.6
2018-Aug-20 13:03 260 6 gusting 8 35.6
2018-Aug-20 12:58 212 6 gusting 8 35.6
2018-Aug-20 12:53 234 6 gusting 8 35.6
2018-Aug-20 12:48 206 5 gusting 8 35.6
2018-Aug-20 12:43 221 5 gusting 8 35.6
2018-Aug-20 12:38 297 6 gusting 8 35.6
2018-Aug-20 12:33 251 6 gusting 8 35.6
2018-Aug-20 12:28 213 6 gusting 8 35.0
2018-Aug-20 12:23 246 5 gusting 8 35.0
2018-Aug-20 12:18 248 5 gusting 8 35.0
2018-Aug-20 12:13 231 6 gusting 8 35.0
2018-Aug-20 12:08 259 6 gusting 8 34.4
2018-Aug-20 12:03 241 5 gusting 8 35.0
2018-Aug-20 11:58 239 5 gusting 8 34.4
2018-Aug-20 11:53 257 6 gusting 8 34.4
2018-Aug-20 11:48 254 6 gusting 8 34.4
2018-Aug-20 11:43 248 6 gusting 8 33.9
2018-Aug-20 11:38 258 6 gusting 8 33.9
2018-Aug-20 11:33 252 6 gusting 8 33.9
2018-Aug-20 11:28 255 6 gusting 8 33.9
2018-Aug-20 11:23 218 6 gusting 8 33.9
2018-Aug-20 11:18 226 6 gusting 8 33.9
2018-Aug-20 11:13 220 5 gusting 8 33.9
2018-Aug-20 11:08 257 5 gusting 8 33.3
2018-Aug-20 11:03 251 6 gusting 8 33.3
2018-Aug-20 10:58 243 6 gusting 8 33.3
2018-Aug-20 10:53 278 5 gusting 8 32.8
2018-Aug-20 10:48 294 6 gusting 8 32.8
2018-Aug-20 10:43 270 5 gusting 8 32.8
2018-Aug-20 10:38 270 6 gusting 8 32.2
2018-Aug-20 10:33 022 5 gusting 8 23.3
2018-Aug-20 05:38 045 4 gusting 8 23.3
2018-Aug-20 05:33 061 5 gusting 8 22.8
2018-Aug-20 05:28 059 4 gusting 8 22.8
2018-Aug-20 05:23 055 5 gusting 8 22.8
2018-Aug-20 05:18 045 5 gusting 8 23.3
2018-Aug-20 05:13 045 5 gusting 8 23.3
2018-Aug-20 05:08 048 5 gusting 8 23.3
2018-Aug-20 05:03 080 5 gusting 8 23.3
2018-Aug-20 04:58 049 6 gusting 8 23.3
2018-Aug-20 04:53 045 6 gusting 8 23.3
2018-Aug-20 04:48 045 6 gusting 8 23.3
2018-Aug-20 04:43 068 5 gusting 8 22.8
2018-Aug-20 04:38 045 4 gusting 8 22.8
2018-Aug-20 04:33 045 4 gusting 8 23.3
2018-Aug-20 04:28 045 5 gusting 8 23.3
2018-Aug-20 04:23 045 4 gusting 8 23.3
2018-Aug-20 04:18 045 4 gusting 8 23.3
2018-Aug-20 04:13 045 3 gusting 8 23.3
2018-Aug-20 04:08 050 4 gusting 8 23.3
2018-Aug-20 04:03 045 5 gusting 8 23.3
2018-Aug-20 03:58 045 5 gusting 8 23.3
2018-Aug-20 03:53 056 4 gusting 8 23.3
2018-Aug-20 03:48 058 4 gusting 8 23.3
2018-Aug-20 03:43 032 3 gusting 8 23.3
2018-Aug-20 03:38 045 3 gusting 8 23.9
2018-Aug-20 03:33 057 2 gusting 8 23.9
2018-Aug-20 03:28 037 3 gusting 8 23.9
2018-Aug-20 03:23 045 3 gusting 8 23.3
2018-Aug-20 03:18 057 2 gusting 8 23.3
2018-Aug-20 03:13 047 2 gusting 8 23.3
2018-Aug-20 03:08 045 2 gusting 8 23.3
2018-Aug-20 03:03 045 2 gusting 8 23.3
2018-Aug-20 02:58 022 3 gusting 8 23.3
2018-Aug-20 02:53 045 3 gusting 8 23.3
2018-Aug-20 02:48 045 1 gusting 8 23.3
2018-Aug-20 02:43 037 1 gusting 8 23.3
2018-Aug-20 02:38 084 1 gusting 8 22.8
2018-Aug-20 02:33 050 1 gusting 8 22.8
2018-Aug-20 02:28 030 1 gusting 8 23.3
2018-Aug-20 02:23 338 2 gusting 8 23.3
2018-Aug-20 02:18 045 23.3
2018-Aug-20 02:13 063 1 gusting 8 23.3
2018-Aug-20 02:08 100 23.3
2018-Aug-20 02:03 112 23.3